ペトロパブロフスク・カムチャツキー の空港の天気 - METARとTAF

ペトロパブロフスク・カムチャツキー空港 ( UHPP / PKC ) - ロシア ペトロパブロフスク・カムチャツキー
飛行場実況気象(Metar)
観測時間05/26 11:00 MAGT (05/26 00:00 UTC)
風向・風速南 6m/s
視程10km以上
天気現象
全天の4割程度の雲 雲底高度 370m
全天の8割程度の雲 雲底高度 490m
気温7℃
湿度76%
気圧1004hPa
METARUHPP 260000Z 18006MPS 9999 SCT012 BKN016 07/03 Q1004 R16R/CLRD70 NOSIG RMK MT OBSC QFE750/1000
過去の天気等 Google飛行場航空写真 Wunderground天気予報

過去48時間のMETAR

飛行場予報(TAF)
発表時間: 5/26 09:44 MAGT (5/25 22:44 UTC)
予報対象時間: 26日11時 MAGT ~ 27日17時 MAGT
風向・風速南 3m/s 瞬間風速 12m/s
視程10km以上
全天の4割程度の雲 雲底高度 340m
全天の8割程度の積乱雲 雲底高度 610m
26日17時 MAGT から
風向・風速東南東 3m/s 瞬間風速 8m/s
視程2000m
天気現象もや
全天の8割程度の雲 雲底高度 210m
26日20時 MAGT ~ 27日10時 MAGT に一時的に
風向・風速不定 1m/s
視程500m
天気現象
全天を覆う雲 鉛直視程 60m
27日10時 MAGT から
風向・風速南 3m/s 瞬間風速 12m/s
視程10km以上
全天の4割程度の雲 雲底高度 340m
全天の8割程度の積乱雲 雲底高度 610m
TAF UHPP 252244Z 2600/2706 17003G12MPS 9999 SCT011 BKN020CB
FM260600 12003G08MPS 2000 BR BKN007
TEMPO 2609/2623 VRB01MPS 0500 FG VV002
FM262300 18003G12MPS 9999 SCT011 BKN020CB